createdAt,value
2023-04-13T00:02:10.309Z,99392.97
2023-04-13T00:04:37.136Z,99394.81
2023-04-13T00:07:03.700Z,99384.94
2023-04-13T00:09:33.409Z,99385.94
2023-04-13T00:11:59.924Z,99385.13
2023-04-13T00:14:35.667Z,99391.47
2023-04-13T00:17:03.152Z,99380.75
2023-04-13T00:19:29.869Z,99391.47
2023-04-13T00:21:56.888Z,99378.09
2023-04-13T00:24:23.483Z,99384.47
2023-04-13T00:26:50.008Z,99379.31
2023-04-13T00:29:16.528Z,99381.16
2023-04-13T00:31:43.067Z,99374.13
2023-04-13T00:34:09.569Z,99382.34
2023-04-13T00:36:36.084Z,99379.47
2023-04-13T00:39:02.611Z,99375.34
2023-04-13T00:41:29.228Z,99377.19
2023-04-13T00:43:55.781Z,99372.00
2023-04-13T00:46:25.531Z,99371.16
2023-04-13T00:48:52.908Z,99366.63
2023-04-13T00:51:19.935Z,99370.13
2023-04-13T00:53:46.517Z,99366.00
2023-04-13T00:56:13.383Z,99364.97
2023-04-13T00:58:40.058Z,99361.47
2023-04-13T01:01:06.663Z,99359.63
2023-04-13T01:03:33.403Z,99367.66
2023-04-13T01:06:14.332Z,99373.84
2023-04-13T01:08:53.279Z,99375.03
2023-04-13T01:11:27.743Z,99370.50
2023-04-13T01:14:08.863Z,99370.50
2023-04-13T01:16:42.703Z,99379.41
2023-04-13T01:19:20.345Z,99375.84
2023-04-13T01:21:49.007Z,99385.56
2023-04-13T01:24:32.252Z,99384.09
2023-04-13T01:27:08.092Z,99375.03
2023-04-13T01:29:36.696Z,99389.44
2023-04-13T01:32:03.496Z,99386.75
2023-04-13T01:34:30.415Z,99395.63
2023-04-13T01:36:57.395Z,99397.28
2023-04-13T01:39:26.903Z,99401.81
2023-04-13T01:41:53.425Z,99403.66
2023-04-13T01:44:19.969Z,99415.19
2023-04-13T01:46:51.562Z,99416.88
2023-04-13T01:49:21.061Z,99413.34
2023-04-13T01:51:50.350Z,99419.56
2023-04-13T01:54:20.600Z,99418.69
2023-04-13T01:56:48.759Z,99422.03
2023-04-13T01:59:16.560Z,99423.91
2023-04-13T02:01:43.675Z,99426.56
2023-04-13T02:04:10.663Z,99431.09
2023-04-13T02:06:37.445Z,99434.78
2023-04-13T02:09:06.952Z,99440.13
2023-04-13T02:11:34.974Z,99444.66
2023-04-13T02:14:02.280Z,99451.69
2023-04-13T02:16:28.946Z,99457.06
2023-04-13T02:18:58.326Z,99469.41
2023-04-13T02:21:25.795Z,99469.59
2023-04-13T02:23:52.568Z,99475.81
2023-04-13T02:26:19.775Z,99486.31
2023-04-13T02:28:46.456Z,99481.16
2023-04-13T02:31:17.093Z,99484.66
2023-04-13T02:33:44.755Z,99498.88
2023-04-13T02:36:12.066Z,99487.50
2023-04-13T02:38:38.693Z,99488.31
2023-04-13T02:41:06.494Z,99492.03
2023-04-13T02:43:33.388Z,99497.38
2023-04-13T02:46:00.102Z,99503.75
2023-04-13T02:48:26.981Z,99508.28
2023-04-13T02:50:56.648Z,99519.16
2023-04-13T02:53:23.443Z,99513.81
2023-04-13T02:55:53.684Z,99514.81
2023-04-13T02:58:21.246Z,99515.84
2023-04-13T03:00:48.668Z,99530.25
2023-04-13T03:03:17.036Z,99521.41
2023-04-13T03:05:43.741Z,99534.78
2023-04-13T03:08:10.270Z,99536.59
2023-04-13T03:10:37.596Z,99532.25
2023-04-13T03:13:04.212Z,99541.31
2023-04-13T03:15:31.576Z,99553.03
2023-04-13T03:17:59.889Z,99555.88
2023-04-13T03:20:29.118Z,99550.53
2023-04-13T03:22:56.157Z,99550.72
2023-04-13T03:25:22.764Z,99560.59
2023-04-13T03:27:49.284Z,99569.66
2023-04-13T03:30:15.899Z,99568.78
2023-04-13T03:32:42.480Z,99567.97
2023-04-13T03:35:09.160Z,99573.31
2023-04-13T03:37:42.613Z,99573.69
2023-04-13T03:40:12.653Z,99573.69
2023-04-13T03:42:39.152Z,99572.00
2023-04-13T03:45:07.153Z,99578.19
2023-04-13T03:47:33.828Z,99583.56
2023-04-13T03:50:00.420Z,99583.56
2023-04-13T03:52:27.083Z,99588.06
2023-04-13T03:54:53.814Z,99593.44
2023-04-13T03:57:22.587Z,99596.09
2023-04-13T03:59:49.150Z,99591.78
2023-04-13T04:02:15.939Z,99598.97
2023-04-13T04:04:43.010Z,99613.19
2023-04-13T04:07:09.617Z,99604.31
2023-04-13T04:09:36.110Z,99618.72
2023-04-13T04:12:02.676Z,99618.88
2023-04-13T04:14:29.226Z,99618.06
2023-04-13T04:16:55.966Z,99624.25
2023-04-13T04:19:22.522Z,99620.94
2023-04-13T04:21:49.827Z,99624.44
2023-04-13T04:24:27.574Z,99628.75
2023-04-13T04:26:55.389Z,99631.44
2023-04-13T04:29:22.319Z,99633.28
2023-04-13T04:31:53.467Z,99634.13
2023-04-13T04:34:20.554Z,99646.47
2023-04-13T04:36:50.467Z,99651.84
2023-04-13T04:39:22.243Z,99650.84
2023-04-13T04:41:54.146Z,99655.19
2023-04-13T04:44:24.963Z,99649.84
2023-04-13T04:46:52.621Z,99648.81
2023-04-13T04:49:21.502Z,99661.38
2023-04-13T04:51:51.929Z,99654.16
2023-04-13T04:54:19.685Z,99652.31
2023-04-13T04:56:47.991Z,99658.50
2023-04-13T04:59:14.813Z,99665.72
2023-04-13T05:01:43.191Z,99668.38
2023-04-13T05:04:10.777Z,99667.41
2023-04-13T05:06:41.165Z,99680.78
2023-04-13T05:09:08.851Z,99679.94
2023-04-13T05:11:36.563Z,99691.50
2023-04-13T05:14:03.298Z,99692.47
2023-04-13T05:16:30.555Z,99697.84
2023-04-13T05:18:57.658Z,99699.53
2023-04-13T05:21:24.427Z,99712.91
2023-04-13T05:23:50.982Z,99704.88
2023-04-13T05:26:17.538Z,99707.56
2023-04-13T05:28:44.052Z,99718.25
2023-04-13T05:31:11.206Z,99717.41
2023-04-13T05:33:37.900Z,99720.94
2023-04-13T05:36:05.148Z,99724.59
2023-04-13T05:38:31.826Z,99725.63
2023-04-13T05:40:58.728Z,99730.16
2023-04-13T05:43:25.242Z,99734.66
2023-04-13T05:45:52.067Z,99732.00
2023-04-13T05:48:19.014Z,99733.84
2023-04-13T05:50:45.660Z,99733.84
2023-04-13T05:53:12.707Z,99736.50
2023-04-13T05:55:41.898Z,99747.38
2023-04-13T05:58:08.881Z,99742.84
2023-04-13T06:00:35.369Z,99748.22
2023-04-13T06:03:02.404Z,99751.91
2023-04-13T06:05:31.861Z,99754.59
2023-04-13T06:07:59.707Z,99754.59
2023-04-13T06:10:26.622Z,99760.75
2023-04-13T06:12:53.307Z,99767.81
2023-04-13T06:15:23.936Z,99769.63
2023-04-13T06:17:53.556Z,99779.34
2023-04-13T06:20:21.342Z,99769.47
2023-04-13T06:22:48.295Z,99780.19
2023-04-13T06:25:15.308Z,99783.69
2023-04-13T06:27:43.418Z,99785.34
2023-04-13T06:30:10.676Z,99785.34
2023-04-13T06:32:37.229Z,99791.53
2023-04-13T06:35:05.126Z,99797.72
2023-04-13T06:37:32.242Z,99803.75
2023-04-13T06:39:58.903Z,99801.06
2023-04-13T06:42:25.680Z,99799.22
2023-04-13T06:44:52.162Z,99804.41
2023-04-13T06:47:18.798Z,99804.41
2023-04-13T06:49:45.352Z,99824.84
2023-04-13T06:52:11.871Z,99832.88
2023-04-13T06:54:38.434Z,99829.34
2023-04-13T06:57:05.012Z,99831.19
2023-04-13T06:59:31.552Z,99837.22
2023-04-13T07:01:58.146Z,99836.19
2023-04-13T07:04:27.661Z,99829.66
2023-04-13T07:06:55.988Z,99841.84
2023-04-13T07:09:22.521Z,99860.25
2023-04-13T07:11:49.064Z,99858.41
2023-04-13T07:14:15.658Z,99865.47
2023-04-13T07:16:42.228Z,99873.50
2023-04-13T07:19:08.770Z,99876.19
2023-04-13T07:21:35.329Z,99869.81
2023-04-13T07:24:01.889Z,99874.16
2023-04-13T07:26:28.463Z,99874.97
2023-04-13T07:28:55.010Z,99871.13
2023-04-13T07:31:21.868Z,99878.00
2023-04-13T07:33:48.429Z,99872.66
2023-04-13T07:36:14.971Z,99877.63
2023-04-13T07:38:41.530Z,99883.66
2023-04-13T07:41:08.043Z,99885.13
2023-04-13T07:43:35.372Z,99885.63
2023-04-13T07:46:08.899Z,99890.00
2023-04-13T07:48:36.106Z,99894.84
2023-04-13T07:51:03.380Z,99904.34
2023-04-13T07:53:29.918Z,99907.72
2023-04-13T07:55:56.792Z,99912.06
2023-04-13T07:58:23.867Z,99921.09
2023-04-13T08:00:50.431Z,99927.28
2023-04-13T08:03:17.816Z,99936.16
2023-04-13T08:05:46.904Z,99936.16
2023-04-13T08:08:13.767Z,99949.38
2023-04-13T08:10:40.278Z,99966.31
2023-04-13T08:13:06.959Z,99957.25
2023-04-13T08:15:33.481Z,99952.56
2023-04-13T08:18:00.495Z,99973.00
2023-04-13T08:20:29.184Z,99977.34
2023-04-13T08:22:55.782Z,99993.44
2023-04-13T08:25:22.293Z,99992.59
2023-04-13T08:27:49.049Z,100002.28
2023-04-13T08:30:16.340Z,100009.50
2023-04-13T08:32:42.935Z,100010.34
2023-04-13T08:35:10.356Z,100013.00
2023-04-13T08:37:36.914Z,100014.88
2023-04-13T08:40:07.705Z,100012.00
2023-04-13T08:42:35.057Z,100024.41
2023-04-13T08:45:03.737Z,100023.56
2023-04-13T08:47:30.443Z,100031.44
2023-04-13T08:49:58.880Z,100029.59
2023-04-13T08:52:26.441Z,100039.31
2023-04-13T08:54:56.168Z,100037.31
2023-04-13T08:57:22.997Z,100049.69
2023-04-13T08:59:53.030Z,100047.84
2023-04-13T09:02:24.477Z,100053.00
2023-04-13T09:04:54.172Z,100066.25
2023-04-13T09:07:26.670Z,100066.78
2023-04-13T09:09:58.301Z,100063.94
2023-04-13T09:12:29.109Z,100067.09
2023-04-13T09:14:55.656Z,100070.28
2023-04-13T09:17:32.333Z,100074.13
2023-04-13T09:20:17.617Z,100076.28
2023-04-13T09:22:44.571Z,100088.19
2023-04-13T09:25:25.018Z,100099.41
2023-04-13T09:27:52.517Z,100091.66
2023-04-13T09:30:23.697Z,100093.00
2023-04-13T09:33:10.466Z,100100.53
2023-04-13T09:35:37.786Z,100106.19
2023-04-13T09:38:06.312Z,100115.41
2023-04-13T09:40:33.131Z,100116.75
2023-04-13T09:43:02.169Z,100116.22
2023-04-13T09:45:34.729Z,100121.06
2023-04-13T09:48:03.231Z,100124.22
2023-04-13T09:50:32.230Z,100127.56
2023-04-13T09:53:03.031Z,100139.81
2023-04-13T09:55:30.110Z,100139.63
2023-04-13T09:57:56.661Z,100160.94
2023-04-13T10:00:23.457Z,100155.56
2023-04-13T10:02:51.785Z,100161.75
2023-04-13T10:05:19.584Z,100168.78
2023-04-13T10:07:47.227Z,100167.31
2023-04-13T10:10:14.089Z,100174.34
2023-04-13T10:12:53.638Z,100169.13
2023-04-13T10:15:45.014Z,100184.41
2023-04-13T10:18:39.681Z,100195.97
2023-04-13T10:21:06.311Z,100188.78
2023-04-13T10:23:33.747Z,100193.97
2023-04-13T10:26:01.763Z,100199.00
2023-04-13T10:28:28.727Z,100207.69
2023-04-13T10:30:55.343Z,100224.47
2023-04-13T10:33:22.820Z,100210.72
2023-04-13T10:35:57.806Z,100230.34
2023-04-13T10:38:24.591Z,100249.78
2023-04-13T10:40:51.711Z,100252.47
2023-04-13T10:43:31.928Z,100251.63
2023-04-13T10:46:10.872Z,100248.94
2023-04-13T10:48:37.652Z,100254.13
2023-04-13T10:51:04.223Z,100260.38
2023-04-13T10:53:32.826Z,100262.91
2023-04-13T10:56:00.048Z,100267.44
2023-04-13T10:58:32.781Z,100271.78
2023-04-13T11:01:00.267Z,100275.31
2023-04-13T11:03:28.574Z,100281.50
2023-04-13T11:06:00.353Z,100280.53
2023-04-13T11:08:28.054Z,100289.41
2023-04-13T11:10:56.355Z,100300.16
2023-04-13T11:13:26.521Z,100302.84
2023-04-13T11:16:04.807Z,100310.72
2023-04-13T11:18:31.983Z,100317.09
2023-04-13T11:20:58.565Z,100309.88
2023-04-13T11:23:25.399Z,100306.34
2023-04-13T11:25:58.349Z,100322.28
2023-04-13T11:28:36.994Z,100320.63
2023-04-13T11:31:04.545Z,100323.13
2023-04-13T11:33:31.736Z,100330.19
2023-04-13T11:36:00.285Z,100334.69
2023-04-13T11:38:28.119Z,100339.06
2023-04-13T11:43:34.747Z,100348.13
2023-04-13T11:46:01.443Z,100347.28
2023-04-13T11:48:28.367Z,100375.81
2023-04-13T11:50:55.662Z,100365.09
2023-04-13T11:53:22.583Z,100362.41
2023-04-13T11:55:53.410Z,100381.19
2023-04-13T11:58:21.499Z,100373.28
2023-04-13T12:00:48.824Z,100372.28
2023-04-13T12:05:47.566Z,100376.28
2023-04-13T12:08:26.086Z,100382.53
2023-04-13T12:11:29.829Z,100385.53
2023-04-13T12:13:52.409Z,100383.50
2023-04-13T12:17:01.630Z,100383.50
2023-04-13T12:19:23.129Z,100384.34
2023-04-13T12:21:52.324Z,100387.88
2023-04-13T12:24:19.503Z,100394.06
2023-04-13T12:29:15.886Z,100388.84
2023-04-13T12:31:44.411Z,100395.09
2023-04-13T12:34:11.029Z,100403.16
2023-04-13T12:36:37.553Z,100393.91
2023-04-13T12:39:04.715Z,100391.72
2023-04-13T12:41:32.272Z,100393.53
2023-04-13T12:43:59.068Z,100398.91
2023-04-13T12:46:26.658Z,100403.22
2023-04-13T12:48:53.971Z,100401.72
2023-04-13T12:51:20.789Z,100399.16
2023-04-13T12:53:47.431Z,100409.56
2023-04-13T12:56:14.039Z,100414.59
2023-04-13T12:58:40.666Z,100415.94
2023-04-13T13:01:07.244Z,100431.03
2023-04-13T13:03:34.829Z,100430.84
2023-04-13T13:06:01.689Z,100442.28
2023-04-13T13:08:28.294Z,100429.66
2023-04-13T13:10:55.869Z,100432.19
2023-04-13T13:13:22.876Z,100440.09
2023-04-13T13:15:49.409Z,100443.78
2023-04-13T13:18:15.988Z,100449.50
2023-04-13T13:20:42.584Z,100447.84
2023-04-13T13:23:12.928Z,100456.91
2023-04-13T13:25:52.686Z,100447.34
2023-04-13T13:28:31.033Z,100458.25
2023-04-13T13:30:57.857Z,100460.09
2023-04-13T13:33:24.433Z,100462.78
2023-04-13T13:35:51.020Z,100463.13
2023-04-13T13:38:17.566Z,100457.09
2023-04-13T13:40:46.194Z,100473.41
2023-04-13T13:43:13.975Z,100473.56
2023-04-13T13:45:41.202Z,100476.44
2023-04-13T13:48:07.861Z,100471.22
2023-04-13T13:50:34.480Z,100476.59
2023-04-13T13:53:03.948Z,100473.06
2023-04-13T13:55:33.272Z,100473.25
2023-04-13T13:57:59.900Z,100477.59
2023-04-13T14:00:27.219Z,100477.78
2023-04-13T14:02:53.910Z,100491.22
2023-04-13T14:05:22.183Z,100493.09
2023-04-13T14:07:48.892Z,100492.25
2023-04-13T14:10:15.518Z,100500.31
2023-04-13T14:12:45.144Z,100498.59
2023-04-13T14:15:12.686Z,100504.81
2023-04-13T14:17:39.927Z,100505.00
2023-04-13T14:20:09.077Z,100513.91
2023-04-13T14:22:36.642Z,100519.28
2023-04-13T14:25:03.957Z,100525.47
2023-04-13T14:27:30.653Z,100528.16
2023-04-13T14:29:57.215Z,100530.84
2023-04-13T14:32:23.820Z,100535.25
2023-04-13T14:34:50.408Z,100538.91
2023-04-13T14:37:17.290Z,100547.81
2023-04-13T14:39:43.882Z,100542.63
2023-04-13T14:42:12.221Z,100539.75
2023-04-13T14:44:38.741Z,100546.00
2023-04-13T14:47:08.696Z,100540.63
2023-04-13T14:49:36.149Z,100540.63
2023-04-13T14:52:03.639Z,100542.44
2023-04-13T14:54:30.225Z,100537.94
2023-04-13T14:56:57.048Z,100546.00
2023-04-13T14:59:24.391Z,100552.34
2023-04-13T15:01:51.480Z,100550.50
2023-04-13T15:04:19.625Z,100546.97
2023-04-13T15:06:47.771Z,100540.78
2023-04-13T15:09:15.550Z,100538.09
2023-04-13T15:11:43.396Z,100540.78
2023-04-13T15:14:10.053Z,100546.16
2023-04-13T15:16:37.141Z,100549.00
2023-04-13T15:19:03.884Z,100545.31
2023-04-13T15:21:31.722Z,100550.69
2023-04-13T15:23:58.298Z,100553.38
2023-04-13T15:26:24.859Z,100555.72
2023-04-13T15:28:51.410Z,100556.06
2023-04-13T15:31:18.117Z,100562.59
2023-04-13T15:33:44.754Z,100571.66
2023-04-13T15:36:14.475Z,100564.59
2023-04-13T15:38:41.306Z,100574.72
2023-04-13T15:41:11.350Z,100566.63
2023-04-13T15:43:38.353Z,100565.91
2023-04-13T15:46:05.041Z,100579.53
2023-04-13T15:48:31.846Z,100580.53
2023-04-13T15:50:59.797Z,100580.16
2023-04-13T15:53:29.670Z,100583.53
2023-04-13T15:55:56.240Z,100587.06
2023-04-13T15:58:22.741Z,100587.25
2023-04-13T16:01:07.319Z,100584.69
2023-04-13T16:03:34.822Z,100593.97
2023-04-13T16:06:02.274Z,100595.97
2023-04-13T16:08:31.986Z,100600.69
2023-04-13T16:10:58.976Z,100596.31
2023-04-13T16:13:34.611Z,100597.53
2023-04-13T16:16:07.878Z,100606.59
2023-04-13T16:18:35.731Z,100604.91
2023-04-13T16:21:03.573Z,100607.78
2023-04-13T16:23:33.471Z,100601.72
2023-04-13T16:26:01.192Z,100611.63
2023-04-13T16:28:28.661Z,100611.81
2023-04-13T16:30:55.317Z,100613.69
2023-04-13T16:33:22.366Z,100613.84
2023-04-13T16:35:48.918Z,100617.53
2023-04-13T16:38:15.446Z,100616.84
2023-04-13T16:40:42.054Z,100617.03
2023-04-13T16:43:08.621Z,100623.56
2023-04-13T16:45:36.439Z,100622.75
2023-04-13T16:48:03.094Z,100628.31
2023-04-13T16:50:31.941Z,100627.63
2023-04-13T16:52:58.995Z,100629.66
2023-04-13T16:55:28.248Z,100626.28
2023-04-13T16:57:55.423Z,100630.97
2023-04-13T17:00:22.274Z,100630.28
2023-04-13T17:02:48.959Z,100634.16
2023-04-13T17:05:16.192Z,100639.69
2023-04-13T17:07:44.463Z,100636.34
2023-04-13T17:10:13.063Z,100644.56
2023-04-13T17:12:40.355Z,100650.13
2023-04-13T17:15:07.602Z,100646.91
2023-04-13T17:17:35.021Z,100647.94
2023-04-13T17:20:01.833Z,100650.13
2023-04-13T17:22:28.397Z,100649.47
2023-04-13T17:24:55.865Z,100655.81
2023-04-13T17:27:22.589Z,100654.31
2023-04-13T17:29:49.835Z,100660.03
2023-04-13T17:32:16.667Z,100663.03
2023-04-13T17:34:44.618Z,100664.38
2023-04-13T17:37:11.786Z,100661.19
2023-04-13T17:39:42.159Z,100662.50
2023-04-13T17:42:09.441Z,100666.41
2023-04-13T17:44:36.234Z,100676.94
2023-04-13T17:47:02.848Z,100676.44
2023-04-13T17:49:29.695Z,100684.81
2023-04-13T17:51:59.192Z,100678.09
2023-04-13T17:54:26.912Z,100674.88
2023-04-13T17:56:54.087Z,100685.09
2023-04-13T17:59:21.182Z,100686.28
2023-04-13T18:01:49.891Z,100687.44
2023-04-13T18:04:16.880Z,100688.63
2023-04-13T18:06:43.687Z,100704.06
2023-04-13T18:09:12.570Z,100702.53
2023-04-13T18:11:39.088Z,100695.66
2023-04-13T18:14:06.223Z,100705.69
2023-04-13T18:16:33.015Z,100706.88
2023-04-13T18:18:59.821Z,100715.88
2023-04-13T18:21:27.470Z,100715.38
2023-04-13T18:23:54.581Z,100726.44
2023-04-13T18:26:22.684Z,100724.72
2023-04-13T18:28:49.305Z,100724.25
2023-04-13T18:31:16.541Z,100726.75
2023-04-13T18:33:44.046Z,100721.59
2023-04-13T18:36:15.930Z,100722.63
2023-04-13T18:38:42.759Z,100729.22
2023-04-13T18:41:09.769Z,100736.97
2023-04-13T18:43:36.517Z,100740.84
2023-04-13T18:46:03.107Z,100745.91
2023-04-13T18:48:31.444Z,100748.09
2023-04-13T18:50:58.062Z,100750.28
2023-04-13T18:53:24.815Z,100754.50
2023-04-13T18:55:52.390Z,100764.06
2023-04-13T18:58:19.802Z,100763.75
2023-04-13T19:00:47.209Z,100767.97
2023-04-13T19:03:14.463Z,100776.69
2023-04-13T19:05:41.092Z,100777.53
2023-04-13T19:08:09.853Z,100774.69
2023-04-13T19:10:36.407Z,100776.38
2023-04-13T19:13:03.035Z,100779.72
2023-04-13T19:15:30.782Z,100786.81
2023-04-13T19:17:57.479Z,100789.31
2023-04-13T19:20:24.824Z,100795.53
2023-04-13T19:22:51.551Z,100802.56
2023-04-13T19:25:18.047Z,100800.75
2023-04-13T19:27:45.789Z,100809.66
2023-04-13T19:30:16.332Z,100815.88
2023-04-13T19:32:45.238Z,100813.19
2023-04-13T19:35:12.610Z,100820.94
2023-04-13T19:37:39.481Z,100820.22
2023-04-13T19:40:09.995Z,100825.28
2023-04-13T19:42:37.090Z,100818.06
2023-04-13T19:45:04.267Z,100829.50
2023-04-13T19:47:31.163Z,100824.97
2023-04-13T19:49:57.701Z,100833.69
2023-04-13T19:52:25.342Z,100835.38
2023-04-13T19:54:51.990Z,100833.56
2023-04-13T19:57:18.723Z,100835.22
2023-04-13T19:59:45.409Z,100845.97
2023-04-13T20:02:12.355Z,100849.69
2023-04-13T20:04:40.137Z,100844.44
2023-04-13T20:07:07.784Z,100852.38
2023-04-13T20:09:34.476Z,100855.88
2023-04-13T20:12:01.514Z,100853.19
2023-04-13T20:14:28.124Z,100858.56
2023-04-13T20:16:54.679Z,100859.41
2023-04-13T20:19:22.892Z,100871.00
2023-04-13T20:21:51.251Z,100866.63
2023-04-13T20:24:18.567Z,100871.19
2023-04-13T20:26:45.538Z,100870.31
2023-04-13T20:29:12.117Z,100867.78
2023-04-13T20:31:38.677Z,100873.34
2023-04-13T20:34:07.521Z,100868.94
2023-04-13T20:36:34.056Z,100870.78
2023-04-13T20:39:00.674Z,100869.28
2023-04-13T20:41:29.891Z,100874.81
2023-04-13T20:43:56.591Z,100877.81
2023-04-13T20:46:25.393Z,100878.16
2023-04-13T20:48:52.455Z,100887.19
2023-04-13T20:51:19.534Z,100892.06
2023-04-13T20:53:46.145Z,100894.06
2023-04-13T20:56:12.846Z,100898.78
2023-04-13T20:58:40.770Z,100897.22
2023-04-13T21:01:07.318Z,100902.59
2023-04-13T21:03:34.635Z,100905.47
2023-04-13T21:06:01.445Z,100903.91
2023-04-13T21:08:28.053Z,100901.41
2023-04-13T21:10:54.554Z,100906.91
2023-04-13T21:13:22.154Z,100907.09
2023-04-13T21:15:48.676Z,100916.16
2023-04-13T21:18:15.290Z,100911.94
2023-04-13T21:20:44.703Z,100916.59
2023-04-13T21:23:11.270Z,100920.31
2023-04-13T21:25:37.911Z,100919.28
2023-04-13T21:28:04.766Z,100916.59
2023-04-13T21:30:31.316Z,100916.59
2023-04-13T21:32:57.877Z,100920.31
2023-04-13T21:35:24.418Z,100919.47
2023-04-13T21:37:50.881Z,100914.25
2023-04-13T21:40:18.346Z,100909.03
2023-04-13T21:42:45.031Z,100912.72
2023-04-13T21:45:11.789Z,100919.94
2023-04-13T21:47:38.417Z,100927.28
2023-04-13T21:50:06.010Z,100924.78
2023-04-13T21:52:32.550Z,100919.56
2023-04-13T21:54:59.898Z,100919.03
2023-04-13T21:57:26.793Z,100923.72
2023-04-13T21:59:54.664Z,100920.34
2023-04-13T22:02:21.390Z,100913.59
2023-04-13T22:04:48.034Z,100912.03
2023-04-13T22:07:14.609Z,100912.34
2023-04-13T22:09:41.189Z,100913.66
2023-04-13T22:12:10.235Z,100916.63
2023-04-13T22:14:36.827Z,100916.81
2023-04-13T22:17:03.752Z,100916.13
2023-04-13T22:19:30.311Z,100922.66
2023-04-13T22:21:56.847Z,100918.41
2023-04-13T22:24:23.407Z,100919.59
2023-04-13T22:26:50.000Z,100922.41
2023-04-13T22:29:16.533Z,100915.53
2023-04-13T22:31:43.096Z,100914.81
2023-04-13T22:34:09.642Z,100917.81
2023-04-13T22:36:36.216Z,100919.81
2023-04-13T22:39:02.937Z,100920.97
2023-04-13T22:41:29.576Z,100925.66
2023-04-13T22:43:56.063Z,100924.94
2023-04-13T22:46:23.812Z,100925.13
2023-04-13T22:48:50.470Z,100926.41
2023-04-13T22:51:17.090Z,100927.41
2023-04-13T22:53:43.617Z,100927.72
2023-04-13T22:56:10.170Z,100928.72
2023-04-13T22:58:36.746Z,100933.38
2023-04-13T23:01:03.344Z,100929.16
2023-04-13T23:03:29.991Z,100924.13
2023-04-13T23:05:56.666Z,100924.25
2023-04-13T23:08:23.224Z,100926.09
2023-04-13T23:10:49.765Z,100928.22
2023-04-13T23:13:16.338Z,100926.53
2023-04-13T23:15:42.884Z,100937.28
2023-04-13T23:18:09.418Z,100932.22
2023-04-13T23:20:35.971Z,100938.56
2023-04-13T23:23:02.492Z,100939.41
2023-04-13T23:25:29.084Z,100935.22
2023-04-13T23:27:55.610Z,100936.34
2023-04-13T23:30:22.181Z,100936.66
2023-04-13T23:32:48.732Z,100930.44
2023-04-13T23:35:15.358Z,100932.41
2023-04-13T23:37:43.105Z,100930.72
2023-04-13T23:40:10.743Z,100932.72
2023-04-13T23:42:37.247Z,100933.72
2023-04-13T23:45:04.289Z,100926.81
2023-04-13T23:47:31.431Z,100933.19
2023-04-13T23:49:58.051Z,100935.88
2023-04-13T23:52:24.526Z,100936.00
2023-04-13T23:54:51.045Z,100934.47
2023-04-13T23:57:17.537Z,100934.63
2023-04-13T23:59:44.003Z,100938.28
